sensor_id;sensor_type;location;lat;lon;timestamp;temperature;humidity
59148;DHT22;44930;52.878;6.168;2023-07-20T00:01:07;15.10;99.90
59148;DHT22;44930;52.878;6.168;2023-07-20T00:03:33;14.90;99.90
59148;DHT22;44930;52.878;6.168;2023-07-20T00:05:59;15.00;99.90
59148;DHT22;44930;52.878;6.168;2023-07-20T00:08:24;15.00;99.90
59148;DHT22;44930;52.878;6.168;2023-07-20T00:10:50;15.00;99.90
59148;DHT22;44930;52.878;6.168;2023-07-20T00:13:16;14.90;99.90
59148;DHT22;44930;52.878;6.168;2023-07-20T00:15:44;14.70;99.90
59148;DHT22;44930;52.878;6.168;2023-07-20T00:18:09;14.80;99.90
59148;DHT22;44930;52.878;6.168;2023-07-20T00:20:35;14.90;99.90
59148;DHT22;44930;52.878;6.168;2023-07-20T00:23:00;15.30;99.90
59148;DHT22;44930;52.878;6.168;2023-07-20T00:25:26;14.90;99.90
59148;DHT22;44930;52.878;6.168;2023-07-20T00:27:51;14.80;99.90
59148;DHT22;44930;52.878;6.168;2023-07-20T00:30:18;14.90;99.90
59148;DHT22;44930;52.878;6.168;2023-07-20T00:35:10;14.60;99.90
59148;DHT22;44930;52.878;6.168;2023-07-20T00:37:37;14.70;99.90
59148;DHT22;44930;52.878;6.168;2023-07-20T00:40:03;14.80;99.90
59148;DHT22;44930;52.878;6.168;2023-07-20T00:42:32;14.70;99.90
59148;DHT22;44930;52.878;6.168;2023-07-20T00:44:58;14.60;99.90
59148;DHT22;44930;52.878;6.168;2023-07-20T00:47:24;14.60;99.90
59148;DHT22;44930;52.878;6.168;2023-07-20T00:49:51;14.50;99.90
59148;DHT22;44930;52.878;6.168;2023-07-20T00:52:19;14.50;99.90
59148;DHT22;44930;52.878;6.168;2023-07-20T00:54:45;14.50;99.90
59148;DHT22;44930;52.878;6.168;2023-07-20T00:57:15;14.50;99.90
59148;DHT22;44930;52.878;6.168;2023-07-20T00:59:43;14.50;99.90
59148;DHT22;44930;52.878;6.168;2023-07-20T01:02:09;14.40;99.90
59148;DHT22;44930;52.878;6.168;2023-07-20T01:04:35;14.40;99.90
59148;DHT22;44930;52.878;6.168;2023-07-20T01:07:19;13.90;99.90
59148;DHT22;44930;52.878;6.168;2023-07-20T01:09:57;14.20;99.90
59148;DHT22;44930;52.878;6.168;2023-07-20T01:12:43;14.50;99.90
59148;DHT22;44930;52.878;6.168;2023-07-20T01:15:09;14.10;99.90
59148;DHT22;44930;52.878;6.168;2023-07-20T01:17:35;14.00;99.90
59148;DHT22;44930;52.878;6.168;2023-07-20T01:20:01;14.00;99.90
59148;DHT22;44930;52.878;6.168;2023-07-20T01:33:33;13.80;99.90
59148;DHT22;44930;52.878;6.168;2023-07-20T01:36:00;13.80;99.90
59148;DHT22;44930;52.878;6.168;2023-07-20T01:43:18;13.50;99.90
59148;DHT22;44930;52.878;6.168;2023-07-20T01:45:44;13.50;99.90
59148;DHT22;44930;52.878;6.168;2023-07-20T01:48:10;13.40;99.90
59148;DHT22;44930;52.878;6.168;2023-07-20T01:50:36;13.40;99.90
59148;DHT22;44930;52.878;6.168;2023-07-20T01:57:55;13.30;99.90
59148;DHT22;44930;52.878;6.168;2023-07-20T02:00:20;13.40;99.90
59148;DHT22;44930;52.878;6.168;2023-07-20T02:02:50;13.40;99.90
59148;DHT22;44930;52.878;6.168;2023-07-20T02:05:16;13.40;99.90
59148;DHT22;44930;52.878;6.168;2023-07-20T02:07:42;13.40;99.90
59148;DHT22;44930;52.878;6.168;2023-07-20T02:10:08;13.40;99.90
59148;DHT22;44930;52.878;6.168;2023-07-20T02:12:33;13.40;99.90
59148;DHT22;44930;52.878;6.168;2023-07-20T02:14:59;13.30;99.90
59148;DHT22;44930;52.878;6.168;2023-07-20T02:17:24;13.30;99.90
59148;DHT22;44930;52.878;6.168;2023-07-20T02:19:53;13.30;99.90
59148;DHT22;44930;52.878;6.168;2023-07-20T02:22:20;13.30;99.90
59148;DHT22;44930;52.878;6.168;2023-07-20T02:24:46;13.20;99.90
59148;DHT22;44930;52.878;6.168;2023-07-20T02:27:12;13.20;99.90
59148;DHT22;44930;52.878;6.168;2023-07-20T02:29:38;13.20;99.90
59148;DHT22;44930;52.878;6.168;2023-07-20T02:32:03;13.20;99.90
59148;DHT22;44930;52.878;6.168;2023-07-20T02:34:29;13.10;99.90
59148;DHT22;44930;52.878;6.168;2023-07-20T02:36:55;13.00;99.90
59148;DHT22;44930;52.878;6.168;2023-07-20T02:39:24;12.90;99.90
59148;DHT22;44930;52.878;6.168;2023-07-20T02:41:49;12.90;99.90
59148;DHT22;44930;52.878;6.168;2023-07-20T02:44:15;12.90;99.90
59148;DHT22;44930;52.878;6.168;2023-07-20T02:46:41;12.80;99.90
59148;DHT22;44930;52.878;6.168;2023-07-20T02:49:06;12.70;99.90
59148;DHT22;44930;52.878;6.168;2023-07-20T02:53:58;12.60;99.90
59148;DHT22;44930;52.878;6.168;2023-07-20T02:56:24;12.60;99.90
59148;DHT22;44930;52.878;6.168;2023-07-20T02:58:50;12.80;99.90
59148;DHT22;44930;52.878;6.168;2023-07-20T03:01:16;12.50;99.90
59148;DHT22;44930;52.878;6.168;2023-07-20T03:03:42;12.50;99.90
59148;DHT22;44930;52.878;6.168;2023-07-20T03:06:11;12.50;99.90
59148;DHT22;44930;52.878;6.168;2023-07-20T03:08:36;12.40;99.90
59148;DHT22;44930;52.878;6.168;2023-07-20T03:11:02;12.50;99.90
59148;DHT22;44930;52.878;6.168;2023-07-20T03:13:28;12.40;99.90
59148;DHT22;44930;52.878;6.168;2023-07-20T03:15:53;12.30;99.90
59148;DHT22;44930;52.878;6.168;2023-07-20T03:18:19;12.40;99.90
59148;DHT22;44930;52.878;6.168;2023-07-20T03:20:45;12.30;99.90
59148;DHT22;44930;52.878;6.168;2023-07-20T03:23:11;12.30;99.90
59148;DHT22;44930;52.878;6.168;2023-07-20T03:25:37;12.40;99.90
59148;DHT22;44930;52.878;6.168;2023-07-20T03:28:04;12.30;99.90
59148;DHT22;44930;52.878;6.168;2023-07-20T03:30:29;12.10;99.90
59148;DHT22;44930;52.878;6.168;2023-07-20T03:32:55;12.40;99.90
59148;DHT22;44930;52.878;6.168;2023-07-20T03:35:20;12.20;99.90
59148;DHT22;44930;52.878;6.168;2023-07-20T03:37:46;12.20;99.90
59148;DHT22;44930;52.878;6.168;2023-07-20T03:40:11;12.10;99.90
59148;DHT22;44930;52.878;6.168;2023-07-20T03:42:37;12.00;99.90
59148;DHT22;44930;52.878;6.168;2023-07-20T03:45:04;12.20;99.90
59148;DHT22;44930;52.878;6.168;2023-07-20T03:47:31;12.20;99.90
59148;DHT22;44930;52.878;6.168;2023-07-20T03:49:57;12.00;99.90
59148;DHT22;44930;52.878;6.168;2023-07-20T03:52:23;12.10;99.90
59148;DHT22;44930;52.878;6.168;2023-07-20T03:54:49;11.90;99.90
59148;DHT22;44930;52.878;6.168;2023-07-20T03:57:16;11.90;99.90
59148;DHT22;44930;52.878;6.168;2023-07-20T03:59:45;11.90;99.90
59148;DHT22;44930;52.878;6.168;2023-07-20T04:02:10;11.70;99.90
59148;DHT22;44930;52.878;6.168;2023-07-20T04:04:36;11.80;99.90
59148;DHT22;44930;52.878;6.168;2023-07-20T04:07:02;11.60;99.90
59148;DHT22;44930;52.878;6.168;2023-07-20T04:09:27;11.90;99.90
59148;DHT22;44930;52.878;6.168;2023-07-20T04:11:53;11.90;99.90
59148;DHT22;44930;52.878;6.168;2023-07-20T04:14:18;11.80;99.90
59148;DHT22;44930;52.878;6.168;2023-07-20T04:16:46;12.00;99.90
59148;DHT22;44930;52.878;6.168;2023-07-20T04:19:12;11.80;99.90
59148;DHT22;44930;52.878;6.168;2023-07-20T04:21:41;11.90;99.90
59148;DHT22;44930;52.878;6.168;2023-07-20T04:24:07;12.00;99.90
59148;DHT22;44930;52.878;6.168;2023-07-20T04:26:32;11.90;99.90
59148;DHT22;44930;52.878;6.168;2023-07-20T04:28:58;11.90;99.90
59148;DHT22;44930;52.878;6.168;2023-07-20T04:31:24;12.00;99.90
59148;DHT22;44930;52.878;6.168;2023-07-20T04:33:50;12.00;99.90
59148;DHT22;44930;52.878;6.168;2023-07-20T04:36:16;12.00;99.90
59148;DHT22;44930;52.878;6.168;2023-07-20T04:38:45;12.00;99.90
59148;DHT22;44930;52.878;6.168;2023-07-20T04:41:11;12.10;99.90
59148;DHT22;44930;52.878;6.168;2023-07-20T04:43:43;12.10;99.90
59148;DHT22;44930;52.878;6.168;2023-07-20T04:46:12;12.00;99.90
59148;DHT22;44930;52.878;6.168;2023-07-20T04:48:38;12.20;99.90
59148;DHT22;44930;52.878;6.168;2023-07-20T04:51:04;12.20;99.90
59148;DHT22;44930;52.878;6.168;2023-07-20T04:53:29;12.30;99.90
59148;DHT22;44930;52.878;6.168;2023-07-20T04:55:56;12.40;99.90
59148;DHT22;44930;52.878;6.168;2023-07-20T04:58:22;12.40;99.90
59148;DHT22;44930;52.878;6.168;2023-07-20T05:00:51;12.40;99.90
59148;DHT22;44930;52.878;6.168;2023-07-20T05:03:17;12.60;99.90
59148;DHT22;44930;52.878;6.168;2023-07-20T05:05:43;12.60;99.90
59148;DHT22;44930;52.878;6.168;2023-07-20T05:08:09;12.60;99.90
59148;DHT22;44930;52.878;6.168;2023-07-20T05:10:35;12.60;99.90
59148;DHT22;44930;52.878;6.168;2023-07-20T05:13:00;12.60;99.90
59148;DHT22;44930;52.878;6.168;2023-07-20T05:17:52;12.80;99.90
59148;DHT22;44930;52.878;6.168;2023-07-20T05:20:18;12.80;99.90
59148;DHT22;44930;52.878;6.168;2023-07-20T05:22:44;12.90;99.90
59148;DHT22;44930;52.878;6.168;2023-07-20T05:25:10;12.90;99.90
59148;DHT22;44930;52.878;6.168;2023-07-20T05:27:37;13.10;99.90
59148;DHT22;44930;52.878;6.168;2023-07-20T05:30:06;13.10;99.90
59148;DHT22;44930;52.878;6.168;2023-07-20T05:32:33;13.10;99.90
59148;DHT22;44930;52.878;6.168;2023-07-20T05:34:58;13.20;99.90
59148;DHT22;44930;52.878;6.168;2023-07-20T05:37:24;13.30;99.90
59148;DHT22;44930;52.878;6.168;2023-07-20T05:39:49;13.40;99.90
59148;DHT22;44930;52.878;6.168;2023-07-20T05:42:15;13.50;99.90
59148;DHT22;44930;52.878;6.168;2023-07-20T05:44:41;13.50;99.90
59148;DHT22;44930;52.878;6.168;2023-07-20T05:47:07;13.70;99.90
59148;DHT22;44930;52.878;6.168;2023-07-20T05:49:34;13.60;99.90
59148;DHT22;44930;52.878;6.168;2023-07-20T05:51:59;13.60;99.90
59148;DHT22;44930;52.878;6.168;2023-07-20T05:54:26;13.70;99.90
59148;DHT22;44930;52.878;6.168;2023-07-20T05:56:52;13.70;99.90
59148;DHT22;44930;52.878;6.168;2023-07-20T05:59:18;13.80;99.90
59148;DHT22;44930;52.878;6.168;2023-07-20T06:01:45;13.90;99.90
59148;DHT22;44930;52.878;6.168;2023-07-20T06:04:11;14.00;99.90
59148;DHT22;44930;52.878;6.168;2023-07-20T06:06:37;14.00;99.90
59148;DHT22;44930;52.878;6.168;2023-07-20T06:09:02;14.10;99.90
59148;DHT22;44930;52.878;6.168;2023-07-20T06:11:30;14.20;99.90
59148;DHT22;44930;52.878;6.168;2023-07-20T06:13:56;14.20;99.90
59148;DHT22;44930;52.878;6.168;2023-07-20T06:16:22;14.20;99.90
59148;DHT22;44930;52.878;6.168;2023-07-20T06:18:47;14.30;99.90
59148;DHT22;44930;52.878;6.168;2023-07-20T06:21:13;14.30;99.90
59148;DHT22;44930;52.878;6.168;2023-07-20T06:23:39;14.40;99.90
59148;DHT22;44930;52.878;6.168;2023-07-20T06:26:06;14.50;99.90
59148;DHT22;44930;52.878;6.168;2023-07-20T06:28:32;14.50;99.90
59148;DHT22;44930;52.878;6.168;2023-07-20T06:31:02;14.60;99.90
59148;DHT22;44930;52.878;6.168;2023-07-20T06:33:28;14.60;99.90
59148;DHT22;44930;52.878;6.168;2023-07-20T06:35:54;14.70;99.90
59148;DHT22;44930;52.878;6.168;2023-07-20T06:38:20;14.90;99.90
59148;DHT22;44930;52.878;6.168;2023-07-20T06:43:12;15.00;99.90
59148;DHT22;44930;52.878;6.168;2023-07-20T06:45:37;15.10;99.90
59148;DHT22;44930;52.878;6.168;2023-07-20T06:48:04;15.20;99.90
59148;DHT22;44930;52.878;6.168;2023-07-20T06:50:29;15.30;99.90
59148;DHT22;44930;52.878;6.168;2023-07-20T06:52:55;15.40;99.90
59148;DHT22;44930;52.878;6.168;2023-07-20T06:55:20;15.50;99.90
59148;DHT22;44930;52.878;6.168;2023-07-20T06:57:46;15.60;99.90
59148;DHT22;44930;52.878;6.168;2023-07-20T07:00:12;15.60;99.90
59148;DHT22;44930;52.878;6.168;2023-07-20T07:02:38;15.70;99.90
59148;DHT22;44930;52.878;6.168;2023-07-20T07:05:04;15.80;99.90
59148;DHT22;44930;52.878;6.168;2023-07-20T07:07:30;15.90;99.90
59148;DHT22;44930;52.878;6.168;2023-07-20T07:09:55;15.90;99.90
59148;DHT22;44930;52.878;6.168;2023-07-20T07:12:21;16.00;99.90
59148;DHT22;44930;52.878;6.168;2023-07-20T07:14:46;15.90;99.90
59148;DHT22;44930;52.878;6.168;2023-07-20T07:17:12;16.00;99.90
59148;DHT22;44930;52.878;6.168;2023-07-20T07:19:37;16.00;99.90
59148;DHT22;44930;52.878;6.168;2023-07-20T07:22:04;16.10;99.90
59148;DHT22;44930;52.878;6.168;2023-07-20T07:24:29;16.00;99.90
59148;DHT22;44930;52.878;6.168;2023-07-20T07:27:02;16.00;99.90
59148;DHT22;44930;52.878;6.168;2023-07-20T07:29:29;16.30;99.90
59148;DHT22;44930;52.878;6.168;2023-07-20T07:34:21;16.40;99.90
59148;DHT22;44930;52.878;6.168;2023-07-20T07:36:46;16.50;99.90
59148;DHT22;44930;52.878;6.168;2023-07-20T07:39:12;16.60;99.90
59148;DHT22;44930;52.878;6.168;2023-07-20T07:44:04;16.60;99.90
59148;DHT22;44930;52.878;6.168;2023-07-20T07:46:30;16.50;99.90
59148;DHT22;44930;52.878;6.168;2023-07-20T07:48:55;16.50;99.90
59148;DHT22;44930;52.878;6.168;2023-07-20T07:51:21;16.40;99.90
59148;DHT22;44930;52.878;6.168;2023-07-20T07:56:14;16.40;99.90
59148;DHT22;44930;52.878;6.168;2023-07-20T07:58:40;16.40;99.90
59148;DHT22;44930;52.878;6.168;2023-07-20T08:03:32;16.50;99.90
59148;DHT22;44930;52.878;6.168;2023-07-20T08:05:57;16.60;99.90
59148;DHT22;44930;52.878;6.168;2023-07-20T08:08:25;16.60;99.90
59148;DHT22;44930;52.878;6.168;2023-07-20T08:10:53;17.00;99.90
59148;DHT22;44930;52.878;6.168;2023-07-20T08:13:19;16.60;99.90
59148;DHT22;44930;52.878;6.168;2023-07-20T08:15:48;17.10;99.90
59148;DHT22;44930;52.878;6.168;2023-07-20T08:20:43;17.10;99.90
59148;DHT22;44930;52.878;6.168;2023-07-20T08:23:09;17.30;99.90
59148;DHT22;44930;52.878;6.168;2023-07-20T08:25:36;17.40;99.90
59148;DHT22;44930;52.878;6.168;2023-07-20T08:28:04;17.30;99.90
59148;DHT22;44930;52.878;6.168;2023-07-20T08:30:43;17.40;99.90
59148;DHT22;44930;52.878;6.168;2023-07-20T08:33:10;17.10;99.90
59148;DHT22;44930;52.878;6.168;2023-07-20T08:35:36;17.10;99.90
59148;DHT22;44930;52.878;6.168;2023-07-20T08:38:01;17.20;99.90
59148;DHT22;44930;52.878;6.168;2023-07-20T08:40:27;17.40;99.90
59148;DHT22;44930;52.878;6.168;2023-07-20T08:42:54;17.60;99.90
59148;DHT22;44930;52.878;6.168;2023-07-20T08:45:22;17.70;99.90
59148;DHT22;44930;52.878;6.168;2023-07-20T08:47:48;17.50;99.90
59148;DHT22;44930;52.878;6.168;2023-07-20T08:50:16;17.10;99.90
59148;DHT22;44930;52.878;6.168;2023-07-20T08:52:42;17.40;99.90
59148;DHT22;44930;52.878;6.168;2023-07-20T08:55:07;18.10;99.90
59148;DHT22;44930;52.878;6.168;2023-07-20T08:57:34;17.80;99.90
59148;DHT22;44930;52.878;6.168;2023-07-20T09:00:03;17.80;99.90
59148;DHT22;44930;52.878;6.168;2023-07-20T09:02:39;17.90;99.90
59148;DHT22;44930;52.878;6.168;2023-07-20T09:05:08;17.90;99.90
59148;DHT22;44930;52.878;6.168;2023-07-20T09:07:36;17.70;99.90
59148;DHT22;44930;52.878;6.168;2023-07-20T09:10:02;17.80;99.90
59148;DHT22;44930;52.878;6.168;2023-07-20T09:12:38;17.60;99.90
59148;DHT22;44930;52.878;6.168;2023-07-20T09:15:05;17.90;99.90
59148;DHT22;44930;52.878;6.168;2023-07-20T09:17:31;17.90;99.90
59148;DHT22;44930;52.878;6.168;2023-07-20T09:19:56;18.10;99.90
59148;DHT22;44930;52.878;6.168;2023-07-20T09:22:29;18.20;99.90
59148;DHT22;44930;52.878;6.168;2023-07-20T09:24:54;18.30;99.90
59148;DHT22;44930;52.878;6.168;2023-07-20T09:27:20;18.40;99.90
59148;DHT22;44930;52.878;6.168;2023-07-20T09:29:52;18.50;99.90
59148;DHT22;44930;52.878;6.168;2023-07-20T09:32:20;18.50;99.90
59148;DHT22;44930;52.878;6.168;2023-07-20T09:34:50;18.40;99.90
59148;DHT22;44930;52.878;6.168;2023-07-20T09:37:23;18.40;99.90
59148;DHT22;44930;52.878;6.168;2023-07-20T09:39:51;18.50;99.90
59148;DHT22;44930;52.878;6.168;2023-07-20T09:42:18;18.20;99.90
59148;DHT22;44930;52.878;6.168;2023-07-20T09:44:44;18.40;99.90
59148;DHT22;44930;52.878;6.168;2023-07-20T09:47:10;18.50;99.90
59148;DHT22;44930;52.878;6.168;2023-07-20T09:49:42;18.80;99.90
59148;DHT22;44930;52.878;6.168;2023-07-20T09:52:11;18.10;99.90
59148;DHT22;44930;52.878;6.168;2023-07-20T09:54:40;18.30;99.90
59148;DHT22;44930;52.878;6.168;2023-07-20T09:57:09;18.60;99.90
59148;DHT22;44930;52.878;6.168;2023-07-20T09:59:35;18.60;99.90
59148;DHT22;44930;52.878;6.168;2023-07-20T10:02:05;18.50;99.90
59148;DHT22;44930;52.878;6.168;2023-07-20T10:04:37;18.50;99.90
59148;DHT22;44930;52.878;6.168;2023-07-20T10:07:05;18.60;99.90
59148;DHT22;44930;52.878;6.168;2023-07-20T10:09:35;19.00;99.90
59148;DHT22;44930;52.878;6.168;2023-07-20T10:12:03;19.40;99.90
59148;DHT22;44930;52.878;6.168;2023-07-20T10:14:30;19.40;99.90
59148;DHT22;44930;52.878;6.168;2023-07-20T10:17:01;19.40;99.90
59148;DHT22;44930;52.878;6.168;2023-07-20T10:19:41;19.40;99.90
59148;DHT22;44930;52.878;6.168;2023-07-20T10:22:25;19.00;99.90
59148;DHT22;44930;52.878;6.168;2023-07-20T10:24:51;19.10;99.90
59148;DHT22;44930;52.878;6.168;2023-07-20T10:29:47;19.30;99.90
59148;DHT22;44930;52.878;6.168;2023-07-20T10:32:13;19.50;99.90
59148;DHT22;44930;52.878;6.168;2023-07-20T10:34:39;19.70;99.90
59148;DHT22;44930;52.878;6.168;2023-07-20T10:37:05;19.90;99.90
59148;DHT22;44930;52.878;6.168;2023-07-20T10:39:32;20.20;99.90
59148;DHT22;44930;52.878;6.168;2023-07-20T10:42:07;20.60;99.90
59148;DHT22;44930;52.878;6.168;2023-07-20T10:44:33;20.80;99.90
59148;DHT22;44930;52.878;6.168;2023-07-20T10:47:06;21.20;99.90
59148;DHT22;44930;52.878;6.168;2023-07-20T10:49:34;20.50;99.90
59148;DHT22;44930;52.878;6.168;2023-07-20T10:52:04;20.50;99.90
59148;DHT22;44930;52.878;6.168;2023-07-20T10:57:23;19.50;99.90
59148;DHT22;44930;52.878;6.168;2023-07-20T10:59:48;19.70;99.90
59148;DHT22;44930;52.878;6.168;2023-07-20T11:02:18;19.40;99.90
59148;DHT22;44930;52.878;6.168;2023-07-20T11:04:45;19.90;99.90
59148;DHT22;44930;52.878;6.168;2023-07-20T11:07:16;20.20;99.90
59148;DHT22;44930;52.878;6.168;2023-07-20T11:09:42;19.90;99.90
59148;DHT22;44930;52.878;6.168;2023-07-20T11:12:17;19.70;99.90
59148;DHT22;44930;52.878;6.168;2023-07-20T11:14:54;19.70;99.90
59148;DHT22;44930;52.878;6.168;2023-07-20T11:17:20;19.30;99.90
59148;DHT22;44930;52.878;6.168;2023-07-20T11:19:56;19.70;99.90
59148;DHT22;44930;52.878;6.168;2023-07-20T11:22:22;20.10;99.90
59148;DHT22;44930;52.878;6.168;2023-07-20T11:24:48;19.40;99.90
59148;DHT22;44930;52.878;6.168;2023-07-20T11:27:15;19.90;99.90
59148;DHT22;44930;52.878;6.168;2023-07-20T11:29:40;20.20;99.90
59148;DHT22;44930;52.878;6.168;2023-07-20T11:32:06;20.20;99.90
59148;DHT22;44930;52.878;6.168;2023-07-20T11:34:33;20.30;99.90
59148;DHT22;44930;52.878;6.168;2023-07-20T11:37:00;20.90;99.90
59148;DHT22;44930;52.878;6.168;2023-07-20T11:39:25;20.00;99.90
59148;DHT22;44930;52.878;6.168;2023-07-20T11:41:53;20.40;99.90
59148;DHT22;44930;52.878;6.168;2023-07-20T11:44:21;20.50;99.90
59148;DHT22;44930;52.878;6.168;2023-07-20T11:47:03;20.80;99.90
59148;DHT22;44930;52.878;6.168;2023-07-20T11:49:29;20.70;99.90
59148;DHT22;44930;52.878;6.168;2023-07-20T11:51:56;20.80;99.90
59148;DHT22;44930;52.878;6.168;2023-07-20T11:54:23;21.00;99.90
59148;DHT22;44930;52.878;6.168;2023-07-20T11:56:54;21.20;99.90
59148;DHT22;44930;52.878;6.168;2023-07-20T11:59:20;21.00;99.90
59148;DHT22;44930;52.878;6.168;2023-07-20T12:01:45;21.30;99.90
59148;DHT22;44930;52.878;6.168;2023-07-20T12:04:11;20.90;99.90
59148;DHT22;44930;52.878;6.168;2023-07-20T12:06:37;20.90;99.90
59148;DHT22;44930;52.878;6.168;2023-07-20T12:09:02;20.80;99.90
59148;DHT22;44930;52.878;6.168;2023-07-20T12:11:35;21.60;99.90
59148;DHT22;44930;52.878;6.168;2023-07-20T12:14:02;21.80;99.90
59148;DHT22;44930;52.878;6.168;2023-07-20T12:16:29;22.20;99.90
59148;DHT22;44930;52.878;6.168;2023-07-20T12:19:02;22.30;99.90
59148;DHT22;44930;52.878;6.168;2023-07-20T12:21:29;22.50;99.90
59148;DHT22;44930;52.878;6.168;2023-07-20T12:23:59;22.40;99.90
59148;DHT22;44930;52.878;6.168;2023-07-20T12:26:30;22.00;99.90
59148;DHT22;44930;52.878;6.168;2023-07-20T12:28:55;21.80;99.90
59148;DHT22;44930;52.878;6.168;2023-07-20T12:31:22;21.80;99.90
59148;DHT22;44930;52.878;6.168;2023-07-20T12:33:49;21.90;99.90
59148;DHT22;44930;52.878;6.168;2023-07-20T12:36:15;21.60;99.90
59148;DHT22;44930;52.878;6.168;2023-07-20T12:38:40;23.30;99.90
59148;DHT22;44930;52.878;6.168;2023-07-20T12:41:09;21.60;99.90
59148;DHT22;44930;52.878;6.168;2023-07-20T12:43:34;21.80;99.90
59148;DHT22;44930;52.878;6.168;2023-07-20T12:46:00;21.20;99.90
59148;DHT22;44930;52.878;6.168;2023-07-20T12:48:25;21.50;99.90
59148;DHT22;44930;52.878;6.168;2023-07-20T12:50:51;21.70;99.90
59148;DHT22;44930;52.878;6.168;2023-07-20T12:53:17;22.20;99.90
59148;DHT22;44930;52.878;6.168;2023-07-20T12:55:43;22.30;99.90
59148;DHT22;44930;52.878;6.168;2023-07-20T12:58:09;22.60;97.30
59148;DHT22;44930;52.878;6.168;2023-07-20T13:00:35;22.10;99.90
59148;DHT22;44930;52.878;6.168;2023-07-20T13:03:00;22.20;99.90
59148;DHT22;44930;52.878;6.168;2023-07-20T13:05:30;23.40;99.90
59148;DHT22;44930;52.878;6.168;2023-07-20T13:07:57;22.10;99.70
59148;DHT22;44930;52.878;6.168;2023-07-20T13:10:24;22.20;99.30
59148;DHT22;44930;52.878;6.168;2023-07-20T13:12:49;22.10;99.90
59148;DHT22;44930;52.878;6.168;2023-07-20T13:15:16;22.80;99.40
59148;DHT22;44930;52.878;6.168;2023-07-20T13:17:41;22.90;97.30
59148;DHT22;44930;52.878;6.168;2023-07-20T13:20:09;23.00;96.90
59148;DHT22;44930;52.878;6.168;2023-07-20T13:22:37;22.80;97.10
59148;DHT22;44930;52.878;6.168;2023-07-20T13:25:02;22.60;97.30
59148;DHT22;44930;52.878;6.168;2023-07-20T13:27:28;23.60;97.60
59148;DHT22;44930;52.878;6.168;2023-07-20T13:29:55;23.30;97.30
59148;DHT22;44930;52.878;6.168;2023-07-20T13:32:22;23.40;96.80
59148;DHT22;44930;52.878;6.168;2023-07-20T13:34:48;23.00;95.90
59148;DHT22;44930;52.878;6.168;2023-07-20T13:37:14;23.50;97.80
59148;DHT22;44930;52.878;6.168;2023-07-20T13:39:39;23.30;97.40
59148;DHT22;44930;52.878;6.168;2023-07-20T13:42:05;22.60;97.20
59148;DHT22;44930;52.878;6.168;2023-07-20T13:44:32;22.70;96.40
59148;DHT22;44930;52.878;6.168;2023-07-20T13:46:57;22.40;97.30
59148;DHT22;44930;52.878;6.168;2023-07-20T13:49:24;22.70;97.30
59148;DHT22;44930;52.878;6.168;2023-07-20T13:51:49;22.50;97.00
59148;DHT22;44930;52.878;6.168;2023-07-20T13:54:15;22.20;97.00
59148;DHT22;44930;52.878;6.168;2023-07-20T13:56:40;22.80;97.60
59148;DHT22;44930;52.878;6.168;2023-07-20T13:59:06;23.70;97.80
59148;DHT22;44930;52.878;6.168;2023-07-20T14:01:32;22.40;97.90
59148;DHT22;44930;52.878;6.168;2023-07-20T14:04:01;23.70;97.80
59148;DHT22;44930;52.878;6.168;2023-07-20T14:06:30;22.80;97.30
59148;DHT22;44930;52.878;6.168;2023-07-20T14:08:56;22.50;94.90
59148;DHT22;44930;52.878;6.168;2023-07-20T14:11:22;23.20;95.40
59148;DHT22;44930;52.878;6.168;2023-07-20T14:13:48;23.30;95.40
59148;DHT22;44930;52.878;6.168;2023-07-20T14:16:13;23.40;95.30
59148;DHT22;44930;52.878;6.168;2023-07-20T14:18:39;24.20;95.00
59148;DHT22;44930;52.878;6.168;2023-07-20T14:21:04;25.20;95.20
59148;DHT22;44930;52.878;6.168;2023-07-20T14:23:32;23.70;94.10
59148;DHT22;44930;52.878;6.168;2023-07-20T14:25:57;22.90;95.80
59148;DHT22;44930;52.878;6.168;2023-07-20T14:28:24;22.60;95.50
59148;DHT22;44930;52.878;6.168;2023-07-20T14:30:49;23.10;95.60
59148;DHT22;44930;52.878;6.168;2023-07-20T14:33:15;23.50;96.60
59148;DHT22;44930;52.878;6.168;2023-07-20T14:35:41;23.10;95.50
59148;DHT22;44930;52.878;6.168;2023-07-20T14:38:06;22.90;94.90
59148;DHT22;44930;52.878;6.168;2023-07-20T14:40:32;23.10;95.30
59148;DHT22;44930;52.878;6.168;2023-07-20T14:42:58;23.10;95.90
59148;DHT22;44930;52.878;6.168;2023-07-20T14:45:26;22.60;96.40
59148;DHT22;44930;52.878;6.168;2023-07-20T14:47:52;22.80;96.90
59148;DHT22;44930;52.878;6.168;2023-07-20T14:50:19;22.80;97.10
59148;DHT22;44930;52.878;6.168;2023-07-20T14:52:45;22.30;97.20
59148;DHT22;44930;52.878;6.168;2023-07-20T14:55:11;22.70;97.20
59148;DHT22;44930;52.878;6.168;2023-07-20T14:57:37;22.30;97.40
59148;DHT22;44930;52.878;6.168;2023-07-20T15:00:04;22.60;97.40
59148;DHT22;44930;52.878;6.168;2023-07-20T15:02:40;22.90;98.00
59148;DHT22;44930;52.878;6.168;2023-07-20T15:05:07;21.70;96.80
59148;DHT22;44930;52.878;6.168;2023-07-20T15:07:33;22.70;97.80
59148;DHT22;44930;52.878;6.168;2023-07-20T15:10:00;22.20;97.70
59148;DHT22;44930;52.878;6.168;2023-07-20T15:12:25;21.50;96.70
59148;DHT22;44930;52.878;6.168;2023-07-20T15:15:04;23.70;98.10
59148;DHT22;44930;52.878;6.168;2023-07-20T15:17:30;21.80;97.10
59148;DHT22;44930;52.878;6.168;2023-07-20T15:19:56;21.50;97.60
59148;DHT22;44930;52.878;6.168;2023-07-20T15:22:21;21.00;98.40
59148;DHT22;44930;52.878;6.168;2023-07-20T15:24:47;21.20;99.30
59148;DHT22;44930;52.878;6.168;2023-07-20T15:27:13;21.10;99.70
59148;DHT22;44930;52.878;6.168;2023-07-20T15:29:38;21.20;99.70
59148;DHT22;44930;52.878;6.168;2023-07-20T15:32:04;21.10;99.90
59148;DHT22;44930;52.878;6.168;2023-07-20T15:34:31;20.70;99.90
59148;DHT22;44930;52.878;6.168;2023-07-20T15:36:57;20.90;99.90
59148;DHT22;44930;52.878;6.168;2023-07-20T15:39:22;21.50;99.90
59148;DHT22;44930;52.878;6.168;2023-07-20T15:41:49;21.20;99.90
59148;DHT22;44930;52.878;6.168;2023-07-20T15:44:15;22.00;99.40
59148;DHT22;44930;52.878;6.168;2023-07-20T15:49:07;22.70;97.80
59148;DHT22;44930;52.878;6.168;2023-07-20T15:51:34;23.10;98.00
59148;DHT22;44930;52.878;6.168;2023-07-20T15:54:02;22.40;97.40
59148;DHT22;44930;52.878;6.168;2023-07-20T15:56:27;23.60;97.50
59148;DHT22;44930;52.878;6.168;2023-07-20T15:58:53;22.70;96.50
59148;DHT22;44930;52.878;6.168;2023-07-20T16:01:19;22.70;96.70
59148;DHT22;44930;52.878;6.168;2023-07-20T16:03:44;22.70;96.20
59148;DHT22;44930;52.878;6.168;2023-07-20T16:06:10;22.40;95.90
59148;DHT22;44930;52.878;6.168;2023-07-20T16:08:35;22.60;96.20
59148;DHT22;44930;52.878;6.168;2023-07-20T16:11:01;22.00;96.80
59148;DHT22;44930;52.878;6.168;2023-07-20T16:13:28;22.10;96.20
59148;DHT22;44930;52.878;6.168;2023-07-20T16:15:54;22.00;96.30
59148;DHT22;44930;52.878;6.168;2023-07-20T16:18:20;21.70;96.00